sensor_id;sensor_type;location;lat;lon;timestamp;pressure;altitude;pressure_sealevel;temperature;humidity
46412;BME280;32113;42.012;24.870;2022-12-31T00:01:43;100128.69;;;9.57;58.46
46412;BME280;32113;42.012;24.870;2022-12-31T00:04:09;100127.84;;;9.58;59.05
46412;BME280;32113;42.012;24.870;2022-12-31T00:06:34;100131.22;;;9.55;59.12
46412;BME280;32113;42.012;24.870;2022-12-31T00:09:00;100134.50;;;9.42;58.27
46412;BME280;32113;42.012;24.870;2022-12-31T00:11:26;100127.69;;;9.42;58.58
46412;BME280;32113;42.012;24.870;2022-12-31T00:13:52;100125.09;;;9.38;57.82
46412;BME280;32113;42.012;24.870;2022-12-31T00:16:19;100124.75;;;9.13;53.94
46412;BME280;32113;42.012;24.870;2022-12-31T00:18:45;100132.50;;;9.16;54.15
46412;BME280;32113;42.012;24.870;2022-12-31T00:21:11;100123.69;;;8.95;53.84
46412;BME280;32113;42.012;24.870;2022-12-31T00:23:37;100130.56;;;9.01;53.97
46412;BME280;32113;42.012;24.870;2022-12-31T00:26:07;100132.47;;;9.14;53.84
46412;BME280;32113;42.012;24.870;2022-12-31T00:28:33;100138.56;;;9.24;53.68
46412;BME280;32113;42.012;24.870;2022-12-31T00:31:09;100137.78;;;9.31;53.38
46412;BME280;32113;42.012;24.870;2022-12-31T00:33:35;100134.16;;;9.12;52.84
46412;BME280;32113;42.012;24.870;2022-12-31T00:36:14;100132.09;;;8.86;52.88
46412;BME280;32113;42.012;24.870;2022-12-31T00:38:40;100135.94;;;8.56;53.78
46412;BME280;32113;42.012;24.870;2022-12-31T00:41:06;100136.47;;;8.39;54.54
46412;BME280;32113;42.012;24.870;2022-12-31T00:43:32;100141.38;;;8.25;54.37
46412;BME280;32113;42.012;24.870;2022-12-31T00:45:58;100152.81;;;7.97;56.00
46412;BME280;32113;42.012;24.870;2022-12-31T00:48:23;100127.28;;;7.98;55.93
46412;BME280;32113;42.012;24.870;2022-12-31T00:50:49;100134.91;;;7.97;55.80
46412;BME280;32113;42.012;24.870;2022-12-31T00:53:14;100136.63;;;7.98;55.59
46412;BME280;32113;42.012;24.870;2022-12-31T00:55:40;100145.38;;;8.09;55.50
46412;BME280;32113;42.012;24.870;2022-12-31T00:58:05;100145.31;;;8.06;55.31
46412;BME280;32113;42.012;24.870;2022-12-31T01:00:30;100147.09;;;8.10;55.21
46412;BME280;32113;42.012;24.870;2022-12-31T01:02:56;100149.88;;;8.23;55.19
46412;BME280;32113;42.012;24.870;2022-12-31T01:05:21;100160.13;;;8.24;55.57
46412;BME280;32113;42.012;24.870;2022-12-31T01:07:46;100155.94;;;8.31;55.51
46412;BME280;32113;42.012;24.870;2022-12-31T01:10:12;100156.25;;;8.48;56.24
46412;BME280;32113;42.012;24.870;2022-12-31T01:12:58;100158.38;;;8.76;55.42
46412;BME280;32113;42.012;24.870;2022-12-31T01:15:23;100154.44;;;8.98;55.06
46412;BME280;32113;42.012;24.870;2022-12-31T01:17:48;100155.50;;;9.14;54.97
46412;BME280;32113;42.012;24.870;2022-12-31T01:20:14;100155.81;;;9.38;55.06
46412;BME280;32113;42.012;24.870;2022-12-31T01:22:39;100167.09;;;9.55;56.38
46412;BME280;32113;42.012;24.870;2022-12-31T01:25:04;100161.19;;;9.61;56.79
46412;BME280;32113;42.012;24.870;2022-12-31T01:27:30;100146.72;;;9.65;56.93
46412;BME280;32113;42.012;24.870;2022-12-31T01:29:55;100144.16;;;9.66;57.43
46412;BME280;32113;42.012;24.870;2022-12-31T01:32:20;100139.00;;;9.60;57.74
46412;BME280;32113;42.012;24.870;2022-12-31T01:34:46;100140.59;;;9.52;57.94
46412;BME280;32113;42.012;24.870;2022-12-31T01:37:11;100145.69;;;9.47;57.89
46412;BME280;32113;42.012;24.870;2022-12-31T01:39:36;100146.53;;;9.49;57.75
46412;BME280;32113;42.012;24.870;2022-12-31T01:42:01;100153.22;;;9.36;58.06
46412;BME280;32113;42.012;24.870;2022-12-31T01:46:52;100160.78;;;9.27;59.15
46412;BME280;32113;42.012;24.870;2022-12-31T01:52:03;100162.13;;;8.98;58.78
46412;BME280;32113;42.012;24.870;2022-12-31T01:54:31;100156.00;;;8.90;59.73
46412;BME280;32113;42.012;24.870;2022-12-31T01:56:57;100157.66;;;8.85;59.89
46412;BME280;32113;42.012;24.870;2022-12-31T01:59:23;100149.75;;;8.69;60.62
46412;BME280;32113;42.012;24.870;2022-12-31T02:01:51;100152.13;;;8.57;60.00
46412;BME280;32113;42.012;24.870;2022-12-31T02:04:16;100135.06;;;8.56;59.75
46412;BME280;32113;42.012;24.870;2022-12-31T02:09:22;100132.34;;;8.48;60.11
46412;BME280;32113;42.012;24.870;2022-12-31T02:11:48;100136.63;;;8.49;60.02
46412;BME280;32113;42.012;24.870;2022-12-31T02:14:14;100141.00;;;8.53;59.59
46412;BME280;32113;42.012;24.870;2022-12-31T02:24:42;100156.38;;;8.54;62.23
46412;BME280;32113;42.012;24.870;2022-12-31T02:27:15;100148.84;;;8.65;61.53
46412;BME280;32113;42.012;24.870;2022-12-31T02:32:12;100150.53;;;8.65;61.31
46412;BME280;32113;42.012;24.870;2022-12-31T02:34:45;100150.59;;;8.68;60.79
46412;BME280;32113;42.012;24.870;2022-12-31T02:37:11;100156.50;;;8.64;60.78
46412;BME280;32113;42.012;24.870;2022-12-31T02:39:38;100154.97;;;8.74;60.85
46412;BME280;32113;42.012;24.870;2022-12-31T02:42:04;100153.25;;;8.74;61.10
46412;BME280;32113;42.012;24.870;2022-12-31T02:44:30;100149.78;;;8.71;61.26
46412;BME280;32113;42.012;24.870;2022-12-31T02:57:24;100146.09;;;8.53;60.46
46412;BME280;32113;42.012;24.870;2022-12-31T03:00:10;100147.03;;;8.58;61.45
46412;BME280;32113;42.012;24.870;2022-12-31T03:02:55;100139.47;;;8.64;60.51
46412;BME280;32113;42.012;24.870;2022-12-31T03:05:23;100135.22;;;8.66;60.67
46412;BME280;32113;42.012;24.870;2022-12-31T03:07:49;100150.56;;;8.66;60.54
46412;BME280;32113;42.012;24.870;2022-12-31T03:10:14;100147.88;;;8.57;60.42
46412;BME280;32113;42.012;24.870;2022-12-31T03:12:40;100155.34;;;8.46;58.79
46412;BME280;32113;42.012;24.870;2022-12-31T03:15:11;100156.22;;;8.47;58.34
46412;BME280;32113;42.012;24.870;2022-12-31T03:17:56;100157.03;;;8.44;58.28
46412;BME280;32113;42.012;24.870;2022-12-31T03:20:23;100159.63;;;8.46;57.71
46412;BME280;32113;42.012;24.870;2022-12-31T03:23:09;100169.94;;;8.52;59.30
46412;BME280;32113;42.012;24.870;2022-12-31T03:25:35;100178.63;;;8.62;59.75
46412;BME280;32113;42.012;24.870;2022-12-31T03:28:03;100183.06;;;8.71;59.66
46412;BME280;32113;42.012;24.870;2022-12-31T03:30:29;100194.22;;;8.76;59.38
46412;BME280;32113;42.012;24.870;2022-12-31T03:32:54;100194.78;;;8.59;59.74
46412;BME280;32113;42.012;24.870;2022-12-31T03:35:23;100204.03;;;8.51;59.41
46412;BME280;32113;42.012;24.870;2022-12-31T03:37:49;100208.25;;;8.49;58.97
46412;BME280;32113;42.012;24.870;2022-12-31T03:40:15;100198.69;;;8.38;59.55
46412;BME280;32113;42.012;24.870;2022-12-31T03:42:40;100193.66;;;8.41;59.55
46412;BME280;32113;42.012;24.870;2022-12-31T03:45:06;100192.00;;;8.45;59.10
46412;BME280;32113;42.012;24.870;2022-12-31T03:47:32;100191.13;;;8.45;59.18
46412;BME280;32113;42.012;24.870;2022-12-31T03:49:57;100182.41;;;8.33;59.84
46412;BME280;32113;42.012;24.870;2022-12-31T03:52:23;100194.44;;;8.37;59.63
46412;BME280;32113;42.012;24.870;2022-12-31T03:54:48;100193.44;;;8.29;59.90
46412;BME280;32113;42.012;24.870;2022-12-31T03:57:13;100202.66;;;8.21;59.49
46412;BME280;32113;42.012;24.870;2022-12-31T03:59:39;100199.22;;;8.19;60.29
46412;BME280;32113;42.012;24.870;2022-12-31T04:02:04;100199.16;;;8.15;60.52
46412;BME280;32113;42.012;24.870;2022-12-31T04:04:30;100204.84;;;7.99;61.10
46412;BME280;32113;42.012;24.870;2022-12-31T04:06:55;100216.56;;;7.89;61.39
46412;BME280;32113;42.012;24.870;2022-12-31T04:09:20;100214.00;;;7.89;62.30
46412;BME280;32113;42.012;24.870;2022-12-31T04:11:46;100200.34;;;7.88;62.28
46412;BME280;32113;42.012;24.870;2022-12-31T04:14:11;100202.06;;;7.88;62.24
46412;BME280;32113;42.012;24.870;2022-12-31T04:16:36;100207.19;;;7.88;62.33
46412;BME280;32113;42.012;24.870;2022-12-31T04:19:02;100209.00;;;7.94;61.63
46412;BME280;32113;42.012;24.870;2022-12-31T04:21:27;100206.59;;;8.01;61.48
46412;BME280;32113;42.012;24.870;2022-12-31T04:23:52;100201.44;;;8.00;60.76
46412;BME280;32113;42.012;24.870;2022-12-31T04:26:17;100203.88;;;7.95;60.85
46412;BME280;32113;42.012;24.870;2022-12-31T04:28:43;100196.13;;;7.89;60.70
46412;BME280;32113;42.012;24.870;2022-12-31T04:31:08;100203.78;;;7.89;60.88
46412;BME280;32113;42.012;24.870;2022-12-31T04:33:35;100199.38;;;7.82;60.93
46412;BME280;32113;42.012;24.870;2022-12-31T04:36:01;100200.19;;;7.79;61.18
46412;BME280;32113;42.012;24.870;2022-12-31T04:38:26;100201.72;;;7.69;61.39
46412;BME280;32113;42.012;24.870;2022-12-31T04:40:53;100200.00;;;7.68;61.65
46412;BME280;32113;42.012;24.870;2022-12-31T04:43:37;100191.25;;;7.58;62.27
46412;BME280;32113;42.012;24.870;2022-12-31T04:46:02;100200.69;;;7.61;63.02
46412;BME280;32113;42.012;24.870;2022-12-31T04:48:28;100203.31;;;7.64;62.69
46412;BME280;32113;42.012;24.870;2022-12-31T04:50:53;100204.16;;;7.65;62.56
46412;BME280;32113;42.012;24.870;2022-12-31T04:53:18;100204.66;;;7.46;63.86
46412;BME280;32113;42.012;24.870;2022-12-31T04:55:44;100207.34;;;7.54;63.70
46412;BME280;32113;42.012;24.870;2022-12-31T04:58:10;100209.03;;;7.52;64.76
46412;BME280;32113;42.012;24.870;2022-12-31T05:00:35;100208.22;;;7.55;64.02
46412;BME280;32113;42.012;24.870;2022-12-31T05:03:00;100212.38;;;7.51;64.96
46412;BME280;32113;42.012;24.870;2022-12-31T05:05:25;100221.06;;;7.59;64.70
46412;BME280;32113;42.012;24.870;2022-12-31T05:07:51;100221.91;;;7.58;64.68
46412;BME280;32113;42.012;24.870;2022-12-31T05:10:16;100226.44;;;7.72;64.55
46412;BME280;32113;42.012;24.870;2022-12-31T05:12:41;100221.25;;;7.69;65.04
46412;BME280;32113;42.012;24.870;2022-12-31T05:15:06;100228.28;;;7.79;65.33
46412;BME280;32113;42.012;24.870;2022-12-31T05:17:32;100236.13;;;7.88;64.36
46412;BME280;32113;42.012;24.870;2022-12-31T05:19:57;100237.88;;;7.91;64.14
46412;BME280;32113;42.012;24.870;2022-12-31T05:22:22;100244.09;;;8.02;63.08
46412;BME280;32113;42.012;24.870;2022-12-31T05:24:54;100245.91;;;8.08;62.49
46412;BME280;32113;42.012;24.870;2022-12-31T05:27:20;100245.13;;;8.14;61.57
46412;BME280;32113;42.012;24.870;2022-12-31T05:29:45;100250.91;;;8.04;62.16
46412;BME280;32113;42.012;24.870;2022-12-31T05:32:10;100252.59;;;8.03;63.81
46412;BME280;32113;42.012;24.870;2022-12-31T05:34:36;100243.91;;;7.93;63.88
46412;BME280;32113;42.012;24.870;2022-12-31T05:37:01;100244.13;;;8.04;63.60
46412;BME280;32113;42.012;24.870;2022-12-31T05:39:26;100245.66;;;7.96;63.87
46412;BME280;32113;42.012;24.870;2022-12-31T05:41:51;100252.72;;;8.09;64.20
46412;BME280;32113;42.012;24.870;2022-12-31T05:44:17;100251.06;;;8.11;63.99
46412;BME280;32113;42.012;24.870;2022-12-31T05:46:42;100255.41;;;8.15;64.44
46412;BME280;32113;42.012;24.870;2022-12-31T05:49:07;100250.25;;;8.14;64.67
46412;BME280;32113;42.012;24.870;2022-12-31T05:51:33;100249.56;;;8.23;64.31
46412;BME280;32113;42.012;24.870;2022-12-31T05:53:58;100253.06;;;8.28;63.62
46412;BME280;32113;42.012;24.870;2022-12-31T05:56:23;100261.66;;;8.32;63.99
46412;BME280;32113;42.012;24.870;2022-12-31T05:58:48;100263.50;;;8.40;63.48
46412;BME280;32113;42.012;24.870;2022-12-31T06:01:13;100261.91;;;8.44;63.54
46412;BME280;32113;42.012;24.870;2022-12-31T06:03:39;100265.34;;;8.48;63.46
46412;BME280;32113;42.012;24.870;2022-12-31T06:06:05;100273.19;;;8.56;63.38
46412;BME280;32113;42.012;24.870;2022-12-31T06:08:31;100276.47;;;8.48;63.48
46412;BME280;32113;42.012;24.870;2022-12-31T06:10:56;100280.69;;;8.48;63.72
46412;BME280;32113;42.012;24.870;2022-12-31T06:13:21;100277.50;;;8.58;63.42
46412;BME280;32113;42.012;24.870;2022-12-31T06:15:47;100284.50;;;8.68;62.95
46412;BME280;32113;42.012;24.870;2022-12-31T06:18:12;100281.19;;;8.74;62.94
46412;BME280;32113;42.012;24.870;2022-12-31T06:20:37;100274.31;;;8.72;63.09
46412;BME280;32113;42.012;24.870;2022-12-31T06:23:03;100274.31;;;8.72;62.91
46412;BME280;32113;42.012;24.870;2022-12-31T06:25:28;100276.00;;;8.71;63.72
46412;BME280;32113;42.012;24.870;2022-12-31T06:27:53;100280.38;;;8.77;63.36
46412;BME280;32113;42.012;24.870;2022-12-31T06:30:18;100282.13;;;8.79;63.23
46412;BME280;32113;42.012;24.870;2022-12-31T06:32:44;100290.81;;;8.88;62.97
46412;BME280;32113;42.012;24.870;2022-12-31T06:35:09;100286.63;;;8.93;63.08
46412;BME280;32113;42.012;24.870;2022-12-31T06:37:34;100289.25;;;8.98;62.76
46412;BME280;32113;42.012;24.870;2022-12-31T06:40:00;100294.31;;;8.94;62.84
46412;BME280;32113;42.012;24.870;2022-12-31T06:42:28;100305.41;;;8.93;62.95
46412;BME280;32113;42.012;24.870;2022-12-31T06:44:55;100300.34;;;8.98;62.49
46412;BME280;32113;42.012;24.870;2022-12-31T06:47:20;100297.84;;;9.01;62.44
46412;BME280;32113;42.012;24.870;2022-12-31T06:49:46;100310.72;;;9.07;62.08
46412;BME280;32113;42.012;24.870;2022-12-31T06:52:11;100314.31;;;9.17;61.74
46412;BME280;32113;42.012;24.870;2022-12-31T06:54:36;100299.78;;;9.18;61.80
46412;BME280;32113;42.012;24.870;2022-12-31T06:57:02;100306.63;;;9.17;62.01
46412;BME280;32113;42.012;24.870;2022-12-31T06:59:28;100311.91;;;9.27;61.70
46412;BME280;32113;42.012;24.870;2022-12-31T07:21:54;100340.97;;;9.30;60.75
46412;BME280;32113;42.012;24.870;2022-12-31T07:24:20;100337.69;;;9.38;60.45
46412;BME280;32113;42.012;24.870;2022-12-31T07:35:15;100344.59;;;9.45;60.79
46412;BME280;32113;42.012;24.870;2022-12-31T07:40:27;100343.94;;;9.58;60.85
46412;BME280;32113;42.012;24.870;2022-12-31T07:45:22;100340.53;;;9.59;61.18
46412;BME280;32113;42.012;24.870;2022-12-31T07:47:48;100338.97;;;9.69;60.94
46412;BME280;32113;42.012;24.870;2022-12-31T07:50:14;100334.75;;;9.73;60.81
46412;BME280;32113;42.012;24.870;2022-12-31T07:52:40;100342.53;;;9.78;60.50
46412;BME280;32113;42.012;24.870;2022-12-31T07:55:05;100341.78;;;9.86;60.15
46412;BME280;32113;42.012;24.870;2022-12-31T07:57:32;100349.56;;;9.94;59.80
46412;BME280;32113;42.012;24.870;2022-12-31T08:08:14;100355.97;;;10.29;62.94
46412;BME280;32113;42.012;24.870;2022-12-31T08:10:46;100350.06;;;10.38;60.38
46412;BME280;32113;42.012;24.870;2022-12-31T08:13:12;100363.06;;;10.49;60.35
46412;BME280;32113;42.012;24.870;2022-12-31T08:15:37;100355.44;;;10.54;59.90
46412;BME280;32113;42.012;24.870;2022-12-31T08:18:03;100359.84;;;10.66;59.43
46412;BME280;32113;42.012;24.870;2022-12-31T08:20:28;100351.41;;;10.77;58.93
46412;BME280;32113;42.012;24.870;2022-12-31T08:23:16;100349.75;;;10.87;58.95
46412;BME280;32113;42.012;24.870;2022-12-31T08:28:20;100357.06;;;11.41;75.72
46412;BME280;32113;42.012;24.870;2022-12-31T08:33:37;100353.22;;;12.20;66.23
46412;BME280;32113;42.012;24.870;2022-12-31T08:36:21;100353.25;;;12.26;59.85
46412;BME280;32113;42.012;24.870;2022-12-31T08:46:37;100362.78;;;12.66;57.06
46412;BME280;32113;42.012;24.870;2022-12-31T08:49:09;100369.72;;;12.84;56.61
46412;BME280;32113;42.012;24.870;2022-12-31T08:51:34;100361.13;;;12.95;55.89
46412;BME280;32113;42.012;24.870;2022-12-31T08:53:59;100362.84;;;13.02;55.88
46412;BME280;32113;42.012;24.870;2022-12-31T08:56:26;100356.84;;;13.09;55.58
46412;BME280;32113;42.012;24.870;2022-12-31T08:59:08;100362.88;;;13.29;55.18
46412;BME280;32113;42.012;24.870;2022-12-31T09:01:39;100362.84;;;13.50;53.58
46412;BME280;32113;42.012;24.870;2022-12-31T09:06:51;100358.44;;;14.04;51.13
46412;BME280;32113;42.012;24.870;2022-12-31T09:09:38;100345.41;;;14.30;50.79
46412;BME280;32113;42.012;24.870;2022-12-31T09:12:11;100353.84;;;14.62;49.75
46412;BME280;32113;42.012;24.870;2022-12-31T09:17:09;100338.69;;;15.33;47.96
46412;BME280;32113;42.012;24.870;2022-12-31T09:19:42;100335.63;;;15.80;46.10
46412;BME280;32113;42.012;24.870;2022-12-31T09:22:09;100341.28;;;16.14;45.14
46412;BME280;32113;42.012;24.870;2022-12-31T09:24:34;100330.50;;;16.46;44.29
46412;BME280;32113;42.012;24.870;2022-12-31T09:27:12;100331.84;;;16.72;43.44
46412;BME280;32113;42.012;24.870;2022-12-31T09:32:24;100312.63;;;17.39;42.89
46412;BME280;32113;42.012;24.870;2022-12-31T09:34:56;100316.38;;;17.69;42.47
46412;BME280;32113;42.012;24.870;2022-12-31T09:37:32;100318.56;;;17.91;41.48
46412;BME280;32113;42.012;24.870;2022-12-31T09:40:00;100305.09;;;18.15;41.50
46412;BME280;32113;42.012;24.870;2022-12-31T09:45:22;100289.44;;;18.56;39.65
46412;BME280;32113;42.012;24.870;2022-12-31T09:53:03;100277.00;;;19.05;37.86
46412;BME280;32113;42.012;24.870;2022-12-31T09:55:36;100267.91;;;19.22;37.67
46412;BME280;32113;42.012;24.870;2022-12-31T10:07:38;100252.19;;;19.58;37.00
46412;BME280;32113;42.012;24.870;2022-12-31T10:22:52;100247.69;;;19.93;35.46
46412;BME280;32113;42.012;24.870;2022-12-31T10:25:28;100245.00;;;19.96;35.10
46412;BME280;32113;42.012;24.870;2022-12-31T10:30:43;100240.06;;;19.87;35.50
46412;BME280;32113;42.012;24.870;2022-12-31T10:38:10;100233.06;;;19.88;39.12
46412;BME280;32113;42.012;24.870;2022-12-31T10:48:25;100229.03;;;20.36;37.61
46412;BME280;32113;42.012;24.870;2022-12-31T11:17:09;100192.06;;;20.52;37.37
46412;BME280;32113;42.012;24.870;2022-12-31T11:19:56;100184.22;;;20.52;37.36
46412;BME280;32113;42.012;24.870;2022-12-31T11:30:30;100183.69;;;20.42;36.82
46412;BME280;32113;42.012;24.870;2022-12-31T11:33:11;100177.59;;;20.41;36.90
46412;BME280;32113;42.012;24.870;2022-12-31T11:36:06;100182.97;;;20.37;36.90
46412;BME280;32113;42.012;24.870;2022-12-31T11:38:29;100182.28;;;20.31;36.86
46412;BME280;32113;42.012;24.870;2022-12-31T11:41:08;100173.66;;;20.29;37.85
46412;BME280;32113;42.012;24.870;2022-12-31T11:43:38;100167.47;;;20.32;36.36
46412;BME280;32113;42.012;24.870;2022-12-31T11:46:14;100178.69;;;20.35;38.00
46412;BME280;32113;42.012;24.870;2022-12-31T11:56:43;100167.22;;;20.14;36.23
46412;BME280;32113;42.012;24.870;2022-12-31T11:59:10;100171.66;;;20.11;35.86
46412;BME280;32113;42.012;24.870;2022-12-31T12:04:08;100169.47;;;19.96;36.33
46412;BME280;32113;42.012;24.870;2022-12-31T12:06:34;100168.13;;;19.83;37.09
46412;BME280;32113;42.012;24.870;2022-12-31T12:09:03;100170.94;;;19.77;37.02
46412;BME280;32113;42.012;24.870;2022-12-31T12:11:31;100167.72;;;19.68;37.20
46412;BME280;32113;42.012;24.870;2022-12-31T12:13:56;100166.13;;;19.63;36.97
46412;BME280;32113;42.012;24.870;2022-12-31T12:16:23;100160.41;;;19.51;37.54
46412;BME280;32113;42.012;24.870;2022-12-31T12:18:50;100166.19;;;19.61;37.03
46412;BME280;32113;42.012;24.870;2022-12-31T12:21:25;100161.91;;;19.59;37.32
46412;BME280;32113;42.012;24.870;2022-12-31T12:26:27;100159.44;;;19.55;37.39
46412;BME280;32113;42.012;24.870;2022-12-31T12:28:53;100159.44;;;19.55;38.19
46412;BME280;32113;42.012;24.870;2022-12-31T12:31:20;100158.44;;;19.60;37.38
46412;BME280;32113;42.012;24.870;2022-12-31T12:33:46;100162.63;;;19.64;37.87
46412;BME280;32113;42.012;24.870;2022-12-31T12:36:13;100166.09;;;19.64;37.54
46412;BME280;32113;42.012;24.870;2022-12-31T12:38:39;100164.53;;;19.59;37.74
46412;BME280;32113;42.012;24.870;2022-12-31T12:41:10;100164.56;;;19.57;36.67
46412;BME280;32113;42.012;24.870;2022-12-31T12:43:36;100165.50;;;19.54;36.90
46412;BME280;32113;42.012;24.870;2022-12-31T12:48:33;100168.66;;;19.36;37.19
46412;BME280;32113;42.012;24.870;2022-12-31T12:51:00;100172.44;;;19.25;37.69
46412;BME280;32113;42.012;24.870;2022-12-31T12:53:44;100178.03;;;19.11;38.03
46412;BME280;32113;42.012;24.870;2022-12-31T12:58:52;100176.66;;;18.96;38.81
46412;BME280;32113;42.012;24.870;2022-12-31T13:03:57;100174.38;;;18.84;39.53
46412;BME280;32113;42.012;24.870;2022-12-31T13:17:02;100180.34;;;18.19;40.97
46412;BME280;32113;42.012;24.870;2022-12-31T13:29:25;100182.50;;;17.59;42.98
46412;BME280;32113;42.012;24.870;2022-12-31T13:31:51;100179.13;;;17.55;43.49
46412;BME280;32113;42.012;24.870;2022-12-31T13:34:23;100189.75;;;17.44;43.82
46412;BME280;32113;42.012;24.870;2022-12-31T13:36:50;100192.50;;;17.37;44.14
46412;BME280;32113;42.012;24.870;2022-12-31T13:39:27;100198.69;;;17.29;44.26
46412;BME280;32113;42.012;24.870;2022-12-31T13:44:34;100194.78;;;17.06;45.02
46412;BME280;32113;42.012;24.870;2022-12-31T13:47:17;100204.47;;;16.97;45.19
46412;BME280;32113;42.012;24.870;2022-12-31T13:49:45;100196.91;;;16.83;45.70
46412;BME280;32113;42.012;24.870;2022-12-31T13:52:33;100209.25;;;16.68;46.02
46412;BME280;32113;42.012;24.870;2022-12-31T14:00:16;100215.84;;;16.34;46.83
46412;BME280;32113;42.012;24.870;2022-12-31T14:02:44;100221.22;;;16.22;47.10
46412;BME280;32113;42.012;24.870;2022-12-31T14:07:39;100234.50;;;15.98;47.56
46412;BME280;32113;42.012;24.870;2022-12-31T14:10:11;100237.22;;;15.86;47.85
46412;BME280;32113;42.012;24.870;2022-12-31T14:15:44;100238.25;;;15.74;48.15
46412;BME280;32113;42.012;24.870;2022-12-31T14:23:15;100244.84;;;15.23;48.25
46412;BME280;32113;42.012;24.870;2022-12-31T14:25:45;100242.31;;;15.18;48.62
46412;BME280;32113;42.012;24.870;2022-12-31T14:28:16;100241.53;;;15.10;48.03
46412;BME280;32113;42.012;24.870;2022-12-31T14:30:43;100241.59;;;15.02;48.10
46412;BME280;32113;42.012;24.870;2022-12-31T14:38:18;100253.69;;;15.00;48.16
46412;BME280;32113;42.012;24.870;2022-12-31T14:43:19;100254.59;;;14.93;48.56
46412;BME280;32113;42.012;24.870;2022-12-31T14:45:51;100254.66;;;14.88;48.89
46412;BME280;32113;42.012;24.870;2022-12-31T14:51:03;100252.28;;;14.57;49.59
46412;BME280;32113;42.012;24.870;2022-12-31T14:53:29;100253.22;;;14.51;49.60
46412;BME280;32113;42.012;24.870;2022-12-31T14:56:25;100247.19;;;14.46;50.10
46412;BME280;32113;42.012;24.870;2022-12-31T14:58:56;100246.47;;;14.30;49.50
46412;BME280;32113;42.012;24.870;2022-12-31T15:01:21;100246.47;;;14.25;49.72
46412;BME280;32113;42.012;24.870;2022-12-31T15:03:49;100247.31;;;14.30;49.54
46412;BME280;32113;42.012;24.870;2022-12-31T15:26:46;100264.06;;;13.26;50.60
46412;BME280;32113;42.012;24.870;2022-12-31T15:29:21;100259.75;;;13.30;50.87
46412;BME280;32113;42.012;24.870;2022-12-31T15:31:47;100258.91;;;13.25;50.88
46412;BME280;32113;42.012;24.870;2022-12-31T15:34:24;100270.09;;;13.19;50.53
46412;BME280;32113;42.012;24.870;2022-12-31T15:36:51;100264.91;;;13.22;50.58
46412;BME280;32113;42.012;24.870;2022-12-31T15:41:43;100274.41;;;12.98;50.35
46412;BME280;32113;42.012;24.870;2022-12-31T15:46:46;100271.84;;;12.86;50.50
46412;BME280;32113;42.012;24.870;2022-12-31T15:49:19;100275.28;;;12.90;50.76
46412;BME280;32113;42.012;24.870;2022-12-31T15:51:50;100279.56;;;12.84;50.63
46412;BME280;32113;42.012;24.870;2022-12-31T15:57:29;100276.97;;;12.70;50.09
46412;BME280;32113;42.012;24.870;2022-12-31T15:59:56;100276.13;;;12.65;50.45
46412;BME280;32113;42.012;24.870;2022-12-31T16:02:23;100277.84;;;12.61;50.14
46412;BME280;32113;42.012;24.870;2022-12-31T16:04:49;100284.69;;;12.63;50.86
46412;BME280;32113;42.012;24.870;2022-12-31T16:07:15;100288.09;;;12.57;50.53
46412;BME280;32113;42.012;24.870;2022-12-31T16:09:41;100288.09;;;12.40;51.19
46412;BME280;32113;42.012;24.870;2022-12-31T16:12:09;100288.06;;;12.29;51.46
46412;BME280;32113;42.012;24.870;2022-12-31T16:14:37;100286.34;;;12.15;52.11
46412;BME280;32113;42.012;24.870;2022-12-31T16:17:03;100284.59;;;12.09;51.82
46412;BME280;32113;42.012;24.870;2022-12-31T16:19:33;100286.25;;;12.01;51.94
46412;BME280;32113;42.012;24.870;2022-12-31T16:22:00;100277.63;;;11.87;52.99
46412;BME280;32113;42.012;24.870;2022-12-31T16:24:28;100292.16;;;11.80;53.04
46412;BME280;32113;42.012;24.870;2022-12-31T16:26:55;100291.25;;;11.73;53.27
46412;BME280;32113;42.012;24.870;2022-12-31T16:29:21;100299.84;;;11.74;53.33
46412;BME280;32113;42.012;24.870;2022-12-31T16:31:47;100296.38;;;11.70;53.00
46412;BME280;32113;42.012;24.870;2022-12-31T16:34:17;100293.03;;;11.80;52.69
46412;BME280;32113;42.012;24.870;2022-12-31T16:36:53;100299.06;;;11.87;52.09
46412;BME280;32113;42.012;24.870;2022-12-31T16:39:20;100305.03;;;11.88;51.27
46412;BME280;32113;42.012;24.870;2022-12-31T16:41:46;100302.47;;;11.86;51.57
46412;BME280;32113;42.012;24.870;2022-12-31T16:44:25;100305.91;;;11.88;51.61
46412;BME280;32113;42.012;24.870;2022-12-31T16:46:50;100303.31;;;11.80;51.16
46412;BME280;32113;42.012;24.870;2022-12-31T16:49:20;100299.00;;;11.81;51.40
46412;BME280;32113;42.012;24.870;2022-12-31T16:51:46;100305.06;;;11.91;51.17
46412;BME280;32113;42.012;24.870;2022-12-31T16:54:20;100311.97;;;11.96;51.08
46412;BME280;32113;42.012;24.870;2022-12-31T16:56:50;100302.44;;;11.85;50.87
46412;BME280;32113;42.012;24.870;2022-12-31T16:59:18;100316.16;;;11.83;51.62
46412;BME280;32113;42.012;24.870;2022-12-31T17:01:46;100311.88;;;11.81;51.24
46412;BME280;32113;42.012;24.870;2022-12-31T17:04:13;100320.41;;;11.72;51.23
46412;BME280;32113;42.012;24.870;2022-12-31T17:06:41;100311.81;;;11.68;52.52
46412;BME280;32113;42.012;24.870;2022-12-31T17:09:16;100314.38;;;11.65;51.45
46412;BME280;32113;42.012;24.870;2022-12-31T17:14:14;100323.81;;;11.69;51.55
46412;BME280;32113;42.012;24.870;2022-12-31T17:19:28;100332.47;;;11.90;50.43
46412;BME280;32113;42.012;24.870;2022-12-31T17:21:55;100328.13;;;11.72;50.61
46412;BME280;32113;42.012;24.870;2022-12-31T17:24:20;100332.38;;;11.67;50.77
46412;BME280;32113;42.012;24.870;2022-12-31T17:26:46;100335.84;;;11.72;50.93